Time;durP1;ratioP1;P1;durP2;ratioP2;P2;SDS_P1;SDS_P2;PMS_P1;PMS_P2;Temp;Humidity;BMP_temperature;BMP_pressure;BME280_temperature;BME280_humidity;BME280_pressure;Samples;Min_cycle;Max_cycle;Signal;HPM_P1;HPM_P2
2022/03/07 00:01:22;;;;;;;;;;;22.80;50.30;;;;;;5015966;28;943;-40
2022/03/07 00:03:48;;;;;;;;;;;22.80;50.20;;;;;;5016400;28;1036;-41
2022/03/07 00:06:15;;;;;;;;;;;22.80;50.20;;;;;;5016406;28;964;-40
2022/03/07 00:08:42;;;;;;;;;;;22.70;50.40;;;;;;5016565;28;1906;-40
2022/03/07 00:11:08;;;;;;;;;;;22.70;50.30;;;;;;5015665;28;1386;-40
2022/03/07 00:13:35;;;;;;;;;;;22.70;50.30;;;;;;5016152;28;1163;-43
2022/03/07 00:16:03;;;;;;;;;;;22.70;51.50;;;;;;5016077;28;1004;-40
2022/03/07 00:18:30;;;;;;;;;;;22.70;50.50;;;;;;5015115;28;1159;-42
2022/03/07 00:20:57;;;;;;;;;;;22.60;50.50;;;;;;5015601;28;961;-41
2022/03/07 00:23:24;;;;;;;;;;;22.60;50.30;;;;;;5015890;28;948;-41
2022/03/07 00:25:50;;;;;;;;;;;22.60;50.40;;;;;;5015194;28;963;-41
2022/03/07 00:28:17;;;;;;;;;;;22.60;50.50;;;;;;5016124;28;1923;-40
2022/03/07 00:30:44;;;;;;;;;;;22.60;50.60;;;;;;5015467;28;1007;-43
2022/03/07 00:33:14;;;;;;;;;;;22.60;50.50;;;;;;5015909;28;1347;-41
2022/03/07 00:35:41;;;;;;;;;;;22.60;50.50;;;;;;5016043;28;956;-43
2022/03/07 00:38:08;;;;;;;;;;;22.60;50.50;;;;;;5015821;28;1105;-40
2022/03/07 00:40:34;;;;;;;;;;;22.50;50.50;;;;;;5015321;28;948;-41
2022/03/07 00:43:01;;;;;;;;;;;22.60;50.60;;;;;;5015027;28;1860;-41
2022/03/07 00:45:28;;;;;;;;;;;22.50;50.50;;;;;;5015216;28;952;-40
2022/03/07 00:47:55;;;;;;;;;;;22.50;50.50;;;;;;5015670;28;1918;-41
2022/03/07 00:50:24;;;;;;;;;;;22.50;50.70;;;;;;5014816;28;940;-42
2022/03/07 00:52:50;;;;;;;;;;;22.40;50.60;;;;;;5014815;28;987;-43
2022/03/07 00:55:17;;;;;;;;;;;22.40;50.60;;;;;;5014374;28;971;-42
2022/03/07 00:57:44;;;;;;;;;;;22.50;50.70;;;;;;5014970;28;1028;-41
2022/03/07 01:00:11;;;;;;;;;;;22.40;50.70;;;;;;5014888;28;955;-41
2022/03/07 01:02:38;;;;;;;;;;;22.40;50.60;;;;;;5015332;28;1761;-42
2022/03/07 01:05:05;;;;;;;;;;;22.40;50.70;;;;;;5015211;28;924;-41
2022/03/07 01:07:33;;;;;;;;;;;22.40;50.70;;;;;;5014782;28;1914;-41
2022/03/07 01:10:01;;;;;;;;;;;22.40;50.60;;;;;;5015304;28;933;-41
2022/03/07 01:12:28;;;;;;;;;;;22.40;50.60;;;;;;5015185;28;1035;-42
2022/03/07 01:14:54;;;;;;;;;;;22.40;50.60;;;;;;5014786;28;932;-41
2022/03/07 01:17:21;;;;;;;;;;;22.30;50.60;;;;;;5015443;28;999;-42
2022/03/07 01:19:48;;;;;;;;;;;22.30;50.60;;;;;;5014854;28;1015;-41
2022/03/07 01:22:14;;;;;;;;;;;22.30;50.70;;;;;;5015644;28;955;-41
2022/03/07 01:24:42;;;;;;;;;;;22.30;50.70;;;;;;5015905;28;1205;-42
2022/03/07 01:27:09;;;;;;;;;;;22.30;50.60;;;;;;5015252;28;956;-41
2022/03/07 01:29:36;;;;;;;;;;;22.30;50.60;;;;;;5015646;28;1983;-41
2022/03/07 01:32:03;;;;;;;;;;;22.30;50.60;;;;;;5015002;28;956;-42
2022/03/07 01:34:30;;;;;;;;;;;22.30;50.50;;;;;;5015198;28;1172;-41
2022/03/07 01:36:57;;;;;;;;;;;22.30;50.30;;;;;;5015083;28;1007;-41
2022/03/07 01:39:23;;;;;;;;;;;22.30;50.50;;;;;;5015320;28;928;-41
2022/03/07 01:41:51;;;;;;;;;;;22.30;50.60;;;;;;5015082;28;1032;-41
2022/03/07 01:44:19;;;;;;;;;;;22.30;50.50;;;;;;5015686;28;876;-42
2022/03/07 01:46:46;;;;;;;;;;;22.30;50.60;;;;;;5015452;28;988;-40
2022/03/07 01:49:13;;;;;;;;;;;22.30;50.60;;;;;;5015465;28;1902;-41
2022/03/07 01:51:40;;;;;;;;;;;22.30;50.50;;;;;;5015241;28;932;-41
2022/03/07 01:54:09;;;;;;;;;;;22.20;50.50;;;;;;5015618;28;1007;-41
2022/03/07 01:56:36;;;;;;;;;;;22.20;50.60;;;;;;5015641;28;952;-41
2022/03/07 01:59:04;;;;;;;;;;;22.20;50.50;;;;;;5015332;28;989;-42
2022/03/07 02:01:31;;;;;;;;;;;22.20;50.50;;;;;;5016672;28;1019;-40
2022/03/07 02:04:19;;;;;;;;;;;22.20;50.60;;;;;;5019182;28;1239;-40
2022/03/07 02:06:46;;;;;;;;;;;22.10;50.60;;;;;;5015021;28;916;-41
2022/03/07 02:09:13;;;;;;;;;;;22.20;50.50;;;;;;5013248;28;1906;-41
2022/03/07 02:11:40;;;;;;;;;;;22.20;50.50;;;;;;5013792;28;940;-40
2022/03/07 02:14:15;;;;;;;;;;;22.10;50.40;;;;;;5013483;28;1748;-41
2022/03/07 02:16:42;;;;;;;;;;;22.20;50.50;;;;;;5014759;28;1023;-41
2022/03/07 02:19:08;;;;;;;;;;;22.10;50.50;;;;;;5014836;28;1122;-41
2022/03/07 02:21:36;;;;;;;;;;;22.10;50.40;;;;;;5013626;28;975;-41
2022/03/07 02:24:04;;;;;;;;;;;22.10;50.50;;;;;;5014286;28;1013;-41
2022/03/07 02:26:31;;;;;;;;;;;22.10;50.40;;;;;;5014309;28;988;-40
2022/03/07 02:28:58;;;;;;;;;;;22.10;50.40;;;;;;5014765;28;1894;-40
2022/03/07 02:31:25;;;;;;;;;;;22.00;50.40;;;;;;5014568;28;908;-40
2022/03/07 02:33:52;;;;;;;;;;;22.10;50.40;;;;;;5013780;28;1060;-41
2022/03/07 02:36:18;;;;;;;;;;;22.10;50.30;;;;;;5014098;28;1031;-41
2022/03/07 02:38:45;;;;;;;;;;;22.00;50.40;;;;;;5014823;28;1857;-41
2022/03/07 02:41:14;;;;;;;;;;;22.10;50.40;;;;;;5014173;28;1774;-40
2022/03/07 02:43:40;;;;;;;;;;;22.00;50.30;;;;;;5014341;28;1015;-40
2022/03/07 02:46:07;;;;;;;;;;;22.00;50.30;;;;;;5014227;28;1042;-41
2022/03/07 02:48:34;;;;;;;;;;;22.00;50.40;;;;;;5013483;28;1973;-40
2022/03/07 02:51:01;;;;;;;;;;;22.00;50.30;;;;;;5013216;28;1000;-41
2022/03/07 02:53:28;;;;;;;;;;;22.00;50.40;;;;;;5013525;28;1003;-41
2022/03/07 02:55:54;;;;;;;;;;;22.00;50.20;;;;;;5013473;28;980;-41
2022/03/07 02:58:23;;;;;;;;;;;22.00;50.30;;;;;;5013302;28;975;-41
2022/03/07 03:00:49;;;;;;;;;;;22.00;50.30;;;;;;5013369;28;963;-41
2022/03/07 03:03:16;;;;;;;;;;;22.00;50.20;;;;;;5013147;28;978;-41
2022/03/07 03:05:43;;;;;;;;;;;22.00;50.20;;;;;;5013065;28;987;-41
2022/03/07 03:08:10;;;;;;;;;;;22.00;50.10;;;;;;5012998;28;1973;-41
2022/03/07 03:10:37;;;;;;;;;;;22.00;50.10;;;;;;5013966;28;933;-41
2022/03/07 03:13:04;;;;;;;;;;;22.00;50.10;;;;;;5014313;28;964;-41
2022/03/07 03:15:32;;;;;;;;;;;22.00;50.10;;;;;;5017395;28;983;-41
2022/03/07 03:17:59;;;;;;;;;;;22.00;50.20;;;;;;5017054;28;985;-41
2022/03/07 03:20:25;;;;;;;;;;;21.80;51.30;;;;;;5017337;28;956;-41
2022/03/07 03:22:52;;;;;;;;;;;21.90;50.20;;;;;;5018580;28;987;-41
2022/03/07 03:25:19;;;;;;;;;;;21.90;50.30;;;;;;5016839;28;1083;-40
2022/03/07 03:27:46;;;;;;;;;;;21.90;50.20;;;;;;5017000;28;968;-39
2022/03/07 03:30:13;;;;;;;;;;;21.90;50.20;;;;;;5017197;28;1967;-41
2022/03/07 03:32:41;;;;;;;;;;;22.00;50.00;;;;;;5015615;28;1051;-41
2022/03/07 03:35:08;;;;;;;;;;;21.90;50.10;;;;;;5015877;28;987;-41
2022/03/07 03:37:35;;;;;;;;;;;21.80;50.30;;;;;;5016067;28;1032;-40
2022/03/07 03:40:02;;;;;;;;;;;21.80;50.20;;;;;;5016410;28;1011;-40
2022/03/07 03:42:29;;;;;;;;;;;21.90;50.20;;;;;;5015507;28;1019;-41
2022/03/07 03:44:55;;;;;;;;;;;21.80;50.10;;;;;;5016497;28;1019;-41
2022/03/07 03:47:22;;;;;;;;;;;21.80;50.20;;;;;;5017096;28;865;-41
2022/03/07 03:49:50;;;;;;;;;;;21.80;50.20;;;;;;5016577;28;1977;-41
2022/03/07 03:52:17;;;;;;;;;;;21.80;50.20;;;;;;5016290;28;1031;-40
2022/03/07 03:54:44;;;;;;;;;;;21.80;50.20;;;;;;5017405;28;1003;-41
2022/03/07 03:57:11;;;;;;;;;;;21.80;50.00;;;;;;5017447;28;1000;-41
2022/03/07 03:59:38;;;;;;;;;;;21.80;50.00;;;;;;5015705;28;1037;-41
2022/03/07 04:02:05;;;;;;;;;;;21.80;50.00;;;;;;5014489;28;1761;-40
2022/03/07 04:04:32;;;;;;;;;;;21.70;50.10;;;;;;5014585;28;1107;-41
2022/03/07 04:07:00;;;;;;;;;;;21.70;50.00;;;;;;5015283;28;1168;-40
2022/03/07 04:09:27;;;;;;;;;;;21.70;50.00;;;;;;5014673;28;1902;-39
2022/03/07 04:11:54;;;;;;;;;;;21.70;50.00;;;;;;5014437;28;1007;-41
2022/03/07 04:14:21;;;;;;;;;;;21.70;50.00;;;;;;5015546;28;960;-40
2022/03/07 04:16:48;;;;;;;;;;;21.80;49.90;;;;;;5015003;28;949;-40
2022/03/07 04:19:15;;;;;;;;;;;21.70;49.90;;;;;;5015040;28;1785;-40
2022/03/07 04:21:43;;;;;;;;;;;21.80;49.90;;;;;;5015348;28;990;-40
2022/03/07 04:24:13;;;;;;;;;;;21.70;49.90;;;;;;5014531;28;967;-41
2022/03/07 04:26:39;;;;;;;;;;;21.80;49.90;;;;;;5016191;28;1115;-40
2022/03/07 04:29:08;;;;;;;;;;;21.70;49.80;;;;;;5016908;28;1898;-40
2022/03/07 04:31:35;;;;;;;;;;;21.70;49.90;;;;;;5016690;28;944;-40
2022/03/07 04:34:01;;;;;;;;;;;21.70;50.00;;;;;;5017051;28;974;-41
2022/03/07 04:36:28;;;;;;;;;;;21.60;50.10;;;;;;5016731;28;984;-40
2022/03/07 04:38:55;;;;;;;;;;;21.60;50.50;;;;;;5016726;28;936;-40
2022/03/07 04:41:23;;;;;;;;;;;21.60;50.30;;;;;;5016381;28;956;-40
2022/03/07 04:43:49;;;;;;;;;;;21.60;50.00;;;;;;5016232;28;1027;-40
2022/03/07 04:46:16;;;;;;;;;;;21.80;49.90;;;;;;5016292;28;1006;-40
2022/03/07 04:48:43;;;;;;;;;;;21.80;49.60;;;;;;5015731;28;1977;-40
2022/03/07 04:51:09;;;;;;;;;;;21.90;49.50;;;;;;5016029;28;1009;-40
2022/03/07 04:53:36;;;;;;;;;;;22.00;49.40;;;;;;5016070;28;1008;-40
2022/03/07 04:56:03;;;;;;;;;;;22.00;49.30;;;;;;5015963;28;1037;-40
2022/03/07 04:58:31;;;;;;;;;;;22.00;49.30;;;;;;5017154;28;1007;-39
2022/03/07 05:00:59;;;;;;;;;;;22.00;49.30;;;;;;5016076;28;1093;-40
2022/03/07 05:03:26;;;;;;;;;;;22.00;49.40;;;;;;5016141;28;948;-38
2022/03/07 05:05:52;;;;;;;;;;;22.00;49.60;;;;;;5015849;28;1017;-39
2022/03/07 05:08:19;;;;;;;;;;;22.00;49.70;;;;;;5016453;28;1098;-39
2022/03/07 05:10:46;;;;;;;;;;;22.10;49.70;;;;;;5015722;28;1984;-40
2022/03/07 05:13:13;;;;;;;;;;;22.10;49.70;;;;;;5014679;28;980;-38
2022/03/07 05:15:41;;;;;;;;;;;22.10;49.90;;;;;;5014119;28;1015;-39
2022/03/07 05:18:08;;;;;;;;;;;22.10;49.60;;;;;;5014452;28;920;-40
2022/03/07 05:20:34;;;;;;;;;;;22.10;49.50;;;;;;5014482;28;1001;-39
2022/03/07 05:23:01;;;;;;;;;;;22.20;49.60;;;;;;5015783;28;967;-38
2022/03/07 05:25:28;;;;;;;;;;;22.20;49.60;;;;;;5016224;28;1757;-39
2022/03/07 05:27:55;;;;;;;;;;;22.20;49.50;;;;;;5016284;28;1044;-39
2022/03/07 05:30:23;;;;;;;;;;;22.20;49.50;;;;;;5015695;28;1915;-40
2022/03/07 05:32:52;;;;;;;;;;;22.10;49.50;;;;;;5015509;28;896;-40
2022/03/07 05:35:19;;;;;;;;;;;22.10;49.70;;;;;;5015136;28;1018;-40
2022/03/07 05:37:46;;;;;;;;;;;22.00;49.70;;;;;;5014366;28;968;-41
2022/03/07 05:40:14;;;;;;;;;;;22.00;49.70;;;;;;5014894;28;976;-40
2022/03/07 05:42:41;;;;;;;;;;;22.10;49.80;;;;;;5014622;28;1018;-40
2022/03/07 05:45:08;;;;;;;;;;;22.00;49.80;;;;;;5014765;28;1011;-40
2022/03/07 05:47:35;;;;;;;;;;;22.00;49.80;;;;;;5015234;28;951;-40
2022/03/07 05:50:04;;;;;;;;;;;22.00;49.80;;;;;;5015092;28;1891;-40
2022/03/07 05:52:30;;;;;;;;;;;22.10;49.70;;;;;;5014220;28;981;-40
2022/03/07 05:54:57;;;;;;;;;;;22.10;49.70;;;;;;5013924;28;995;-40
2022/03/07 05:57:24;;;;;;;;;;;22.10;49.70;;;;;;5015622;28;1014;-40
2022/03/07 05:59:51;;;;;;;;;;;22.10;49.80;;;;;;5015511;28;908;-40
2022/03/07 06:02:17;;;;;;;;;;;22.10;49.80;;;;;;5013312;28;957;-40
2022/03/07 06:04:44;;;;;;;;;;;22.00;49.70;;;;;;5014022;28;1004;-39
2022/03/07 06:07:12;;;;;;;;;;;22.10;50.00;;;;;;5014109;28;1032;-40
2022/03/07 06:09:39;;;;;;;;;;;22.10;49.80;;;;;;5013639;28;1972;-40
2022/03/07 06:12:06;;;;;;;;;;;22.00;49.80;;;;;;5013060;28;976;-40
2022/03/07 06:14:33;;;;;;;;;;;22.10;49.90;;;;;;5011429;28;1102;-40
2022/03/07 06:16:59;;;;;;;;;;;22.00;49.90;;;;;;5011508;28;960;-40
2022/03/07 06:19:26;;;;;;;;;;;22.00;50.00;;;;;;5012029;28;1086;-40
2022/03/07 06:21:53;;;;;;;;;;;22.00;50.00;;;;;;5011928;28;1016;-40
2022/03/07 06:24:21;;;;;;;;;;;22.00;50.10;;;;;;5012150;28;903;-40
2022/03/07 06:26:48;;;;;;;;;;;22.00;50.20;;;;;;5011878;28;940;-40
2022/03/07 06:29:14;;;;;;;;;;;22.00;50.50;;;;;;5011636;28;1914;-40
2022/03/07 06:31:41;;;;;;;;;;;21.90;50.50;;;;;;5010997;28;952;-40
2022/03/07 06:34:08;;;;;;;;;;;21.90;50.40;;;;;;5011497;28;1801;-39
2022/03/07 06:36:35;;;;;;;;;;;21.90;50.70;;;;;;5010622;28;830;-39
2022/03/07 06:39:02;;;;;;;;;;;22.00;50.30;;;;;;5011812;28;1035;-38
2022/03/07 06:41:30;;;;;;;;;;;21.90;50.50;;;;;;5012293;28;995;-39
2022/03/07 06:43:56;;;;;;;;;;;22.00;50.20;;;;;;5010736;28;1008;-39
2022/03/07 06:46:23;;;;;;;;;;;22.00;50.10;;;;;;5014324;28;959;-39
2022/03/07 06:48:50;;;;;;;;;;;22.00;50.30;;;;;;5015190;28;964;-40
2022/03/07 06:51:18;;;;;;;;;;;22.10;50.60;;;;;;5016193;28;1910;-39
2022/03/07 06:53:45;;;;;;;;;;;22.20;50.30;;;;;;5016439;28;889;-36
2022/03/07 06:56:12;;;;;;;;;;;22.10;50.30;;;;;;5015167;28;1065;-41
2022/03/07 06:58:41;;;;;;;;;;;22.10;50.10;;;;;;5014953;28;1003;-40
2022/03/07 07:01:08;;;;;;;;;;;22.10;50.50;;;;;;5015207;28;1039;-40
2022/03/07 07:03:35;;;;;;;;;;;22.20;50.50;;;;;;5015530;28;972;-40
2022/03/07 07:06:02;;;;;;;;;;;22.20;50.20;;;;;;5015881;28;1126;-40
2022/03/07 07:08:28;;;;;;;;;;;22.20;50.20;;;;;;5016410;28;1149;-46
2022/03/07 07:10:55;;;;;;;;;;;22.20;50.00;;;;;;5015060;28;1899;-39
2022/03/07 07:13:22;;;;;;;;;;;22.20;50.20;;;;;;5014173;28;920;-39
2022/03/07 07:15:55;;;;;;;;;;;22.20;50.10;;;;;;5017566;28;1065;-42
2022/03/07 07:18:22;;;;;;;;;;;22.20;50.20;;;;;;5016127;28;1011;-40
2022/03/07 07:20:50;;;;;;;;;;;22.20;50.60;;;;;;5015894;28;995;-41
2022/03/07 07:23:17;;;;;;;;;;;22.20;50.60;;;;;;5014827;28;988;-41
2022/03/07 07:25:44;;;;;;;;;;;22.20;50.40;;;;;;5014238;28;941;-41
2022/03/07 07:28:11;;;;;;;;;;;22.20;50.00;;;;;;5001909;28;1554;-41
2022/03/07 07:30:38;;;;;;;;;;;22.20;50.30;;;;;;4995980;28;1910;-41
2022/03/07 07:33:06;;;;;;;;;;;22.20;50.10;;;;;;4994085;28;1027;-40
2022/03/07 07:35:36;;;;;;;;;;;22.20;50.10;;;;;;4994093;28;1037;-40
2022/03/07 07:38:03;;;;;;;;;;;22.10;50.10;;;;;;4992946;28;930;-41
2022/03/07 07:40:30;;;;;;;;;;;22.10;50.10;;;;;;4994892;28;985;-40
2022/03/07 07:42:56;;;;;;;;;;;22.10;50.10;;;;;;4994303;28;1015;-40
2022/03/07 07:45:24;;;;;;;;;;;22.10;50.10;;;;;;4993867;28;996;-40
2022/03/07 07:47:50;;;;;;;;;;;22.00;50.30;;;;;;4995275;28;1020;-40
2022/03/07 07:50:19;;;;;;;;;;;22.00;50.30;;;;;;4995204;28;1902;-40
2022/03/07 07:52:46;;;;;;;;;;;22.00;50.30;;;;;;4994678;28;1036;-40
2022/03/07 07:55:13;;;;;;;;;;;22.00;50.30;;;;;;4993396;28;1032;-40
2022/03/07 07:57:40;;;;;;;;;;;22.00;50.20;;;;;;4994300;28;961;-40
2022/03/07 08:00:08;;;;;;;;;;;22.00;50.20;;;;;;4993243;28;945;-40
2022/03/07 08:02:34;;;;;;;;;;;22.00;50.10;;;;;;4994485;28;1057;-40
2022/03/07 08:05:01;;;;;;;;;;;22.00;50.10;;;;;;4994419;28;961;-40
2022/03/07 08:07:30;;;;;;;;;;;21.90;50.20;;;;;;4993710;28;1196;-40
2022/03/07 08:09:56;;;;;;;;;;;22.00;50.20;;;;;;4993908;28;1906;-40
2022/03/07 08:12:23;;;;;;;;;;;22.00;50.10;;;;;;4994856;28;981;-40
2022/03/07 08:14:49;;;;;;;;;;;21.90;50.10;;;;;;4993339;28;969;-40
2022/03/07 08:17:16;;;;;;;;;;;21.90;50.10;;;;;;4994469;28;991;-40
2022/03/07 08:19:43;;;;;;;;;;;21.90;50.10;;;;;;4993859;28;957;-40
2022/03/07 08:22:10;;;;;;;;;;;21.90;50.30;;;;;;4993240;28;948;-40
2022/03/07 08:24:38;;;;;;;;;;;21.90;50.10;;;;;;4992911;28;1005;-40
2022/03/07 08:27:05;;;;;;;;;;;21.90;50.00;;;;;;4993713;28;964;-40
2022/03/07 08:29:32;;;;;;;;;;;21.90;49.90;;;;;;4992965;28;1000;-40
2022/03/07 08:31:58;;;;;;;;;;;21.90;49.80;;;;;;4993211;28;1899;-40
2022/03/07 08:34:25;;;;;;;;;;;21.90;49.90;;;;;;4993467;28;947;-40
2022/03/07 08:36:52;;;;;;;;;;;21.90;50.10;;;;;;4993303;28;960;-40
2022/03/07 08:39:19;;;;;;;;;;;21.90;50.00;;;;;;4992194;28;970;-40
2022/03/07 08:41:47;;;;;;;;;;;21.80;50.00;;;;;;4993566;28;1250;-40
2022/03/07 08:44:14;;;;;;;;;;;21.80;49.90;;;;;;4993864;28;1562;-40
2022/03/07 08:46:41;;;;;;;;;;;21.80;49.90;;;;;;4994390;28;996;-40
2022/03/07 08:49:08;;;;;;;;;;;21.80;50.00;;;;;;4992670;28;971;-40
2022/03/07 08:51:34;;;;;;;;;;;21.80;49.90;;;;;;4992974;28;1976;-40
2022/03/07 08:54:01;;;;;;;;;;;21.80;49.80;;;;;;4992259;28;1007;-40
2022/03/07 08:56:28;;;;;;;;;;;21.80;49.90;;;;;;4992151;28;841;-40
2022/03/07 08:58:56;;;;;;;;;;;21.80;50.00;;;;;;4994418;28;913;-41
2022/03/07 09:01:24;;;;;;;;;;;21.80;49.80;;;;;;4993906;28;941;-41
2022/03/07 09:03:50;;;;;;;;;;;21.90;49.80;;;;;;4992684;28;996;-40
2022/03/07 09:06:17;;;;;;;;;;;21.80;49.70;;;;;;4993636;28;975;-40
2022/03/07 09:08:44;;;;;;;;;;;21.80;49.70;;;;;;4992112;28;1075;-40
2022/03/07 09:11:11;;;;;;;;;;;21.80;49.70;;;;;;4991949;28;1907;-40
2022/03/07 09:13:38;;;;;;;;;;;21.80;49.70;;;;;;4993057;28;932;-40
2022/03/07 09:16:07;;;;;;;;;;;21.80;49.90;;;;;;4993954;28;938;-40
2022/03/07 09:18:34;;;;;;;;;;;21.80;49.90;;;;;;4993728;28;981;-40
2022/03/07 09:21:02;;;;;;;;;;;21.80;49.70;;;;;;4991343;28;1026;-40
2022/03/07 09:23:33;;;;;;;;;;;21.80;49.70;;;;;;4992123;28;941;-40
2022/03/07 09:25:59;;;;;;;;;;;21.70;49.70;;;;;;4992283;28;961;-40
2022/03/07 09:28:26;;;;;;;;;;;21.70;49.70;;;;;;4992640;28;1971;-39
2022/03/07 09:30:53;;;;;;;;;;;21.70;49.90;;;;;;4993280;28;1895;-40
2022/03/07 09:33:21;;;;;;;;;;;21.70;49.80;;;;;;4992486;28;897;-40
2022/03/07 09:35:48;;;;;;;;;;;21.80;49.80;;;;;;4991128;28;903;-38
2022/03/07 09:38:15;;;;;;;;;;;21.70;49.80;;;;;;4992191;28;1003;-40
2022/03/07 09:40:42;;;;;;;;;;;21.70;49.80;;;;;;4993195;28;1100;-40
2022/03/07 09:43:09;;;;;;;;;;;21.70;49.80;;;;;;4989768;28;929;-40
2022/03/07 09:45:36;;;;;;;;;;;21.70;49.80;;;;;;4991891;28;981;-40
2022/03/07 09:48:03;;;;;;;;;;;21.70;49.70;;;;;;4991801;28;988;-40
2022/03/07 09:50:32;;;;;;;;;;;21.70;49.70;;;;;;4991049;28;1902;-41
2022/03/07 09:52:58;;;;;;;;;;;21.70;49.60;;;;;;4990406;28;938;-40
2022/03/07 09:55:25;;;;;;;;;;;21.70;49.70;;;;;;4990717;28;938;-40
2022/03/07 09:57:52;;;;;;;;;;;21.80;49.70;;;;;;4991699;28;904;-41
2022/03/07 10:00:20;;;;;;;;;;;21.70;49.60;;;;;;4991681;28;1016;-40
2022/03/07 10:02:53;;;;;;;;;;;21.70;49.50;;;;;;4990812;28;946;-40
2022/03/07 10:05:20;;;;;;;;;;;21.70;49.50;;;;;;4991719;28;1018;-40
2022/03/07 10:07:48;;;;;;;;;;;21.70;49.60;;;;;;4991574;28;1174;-40
2022/03/07 10:10:15;;;;;;;;;;;21.70;49.70;;;;;;4992199;28;1914;-40
2022/03/07 10:12:45;;;;;;;;;;;21.70;49.60;;;;;;4991637;28;993;-40
2022/03/07 10:15:12;;;;;;;;;;;21.70;49.60;;;;;;4992302;28;1008;-40
2022/03/07 10:17:41;;;;;;;;;;;21.70;49.70;;;;;;4991563;28;945;-40
2022/03/07 10:20:09;;;;;;;;;;;21.70;49.60;;;;;;4991071;28;940;-41
2022/03/07 10:22:35;;;;;;;;;;;21.70;49.70;;;;;;4990838;28;929;-40
2022/03/07 10:25:05;;;;;;;;;;;21.70;49.60;;;;;;4992999;28;988;-39
2022/03/07 10:27:33;;;;;;;;;;;21.70;50.50;;;;;;4993574;28;941;-41
2022/03/07 10:30:00;;;;;;;;;;;21.70;49.70;;;;;;4993076;28;993;-40
2022/03/07 10:32:27;;;;;;;;;;;21.70;49.30;;;;;;4993507;28;1902;-41
2022/03/07 10:34:54;;;;;;;;;;;21.70;49.40;;;;;;4992372;28;967;-40
2022/03/07 10:37:31;;;;;;;;;;;21.80;49.30;;;;;;4993099;28;977;-40
2022/03/07 10:39:58;;;;;;;;;;;21.70;49.40;;;;;;4993400;28;941;-40
2022/03/07 10:42:26;;;;;;;;;;;21.80;49.30;;;;;;4992193;28;965;-40
2022/03/07 10:45:01;;;;;;;;;;;21.80;49.20;;;;;;4994721;28;913;-40
2022/03/07 10:47:30;;;;;;;;;;;21.70;49.20;;;;;;4995096;28;945;-40
2022/03/07 10:49:57;;;;;;;;;;;21.80;49.30;;;;;;4994840;28;963;-40
2022/03/07 10:52:25;;;;;;;;;;;21.80;49.30;;;;;;4994126;28;1973;-41
2022/03/07 10:54:52;;;;;;;;;;;21.80;49.10;;;;;;4993969;28;984;-40
2022/03/07 10:57:20;;;;;;;;;;;21.80;49.20;;;;;;4994825;28;949;-41
2022/03/07 10:59:48;;;;;;;;;;;21.70;49.30;;;;;;4994226;28;1020;-40
2022/03/07 11:02:16;;;;;;;;;;;21.80;49.10;;;;;;4994651;28;904;-40
2022/03/07 11:04:44;;;;;;;;;;;21.80;49.00;;;;;;4992726;28;976;-40
2022/03/07 11:07:12;;;;;;;;;;;21.90;48.90;;;;;;4993482;28;1071;-41
2022/03/07 11:09:40;;;;;;;;;;;21.80;49.00;;;;;;4992952;28;1079;-40
2022/03/07 11:12:10;;;;;;;;;;;21.70;49.10;;;;;;4993285;28;1895;-41
2022/03/07 11:14:38;;;;;;;;;;;21.80;49.00;;;;;;4993184;28;981;-40
2022/03/07 11:17:08;;;;;;;;;;;21.70;49.10;;;;;;4992956;28;937;-40
2022/03/07 11:19:36;;;;;;;;;;;21.70;49.10;;;;;;4993179;28;1004;-40
2022/03/07 11:22:02;;;;;;;;;;;21.80;49.20;;;;;;4992242;28;954;-40
2022/03/07 11:24:29;;;;;;;;;;;21.80;49.20;;;;;;4992304;28;990;-40
2022/03/07 11:26:56;;;;;;;;;;;21.80;49.20;;;;;;4991481;28;988;-41
2022/03/07 11:29:32;;;;;;;;;;;21.80;49.00;;;;;;4991700;28;985;-40
2022/03/07 11:32:00;;;;;;;;;;;21.90;48.80;;;;;;4992134;28;1977;-41
2022/03/07 11:34:28;;;;;;;;;;;21.90;48.50;;;;;;4991790;28;998;-40
2022/03/07 11:36:55;;;;;;;;;;;21.80;48.90;;;;;;4992169;28;984;-40
2022/03/07 11:39:29;;;;;;;;;;;21.80;48.90;;;;;;4992619;28;1012;-41
2022/03/07 11:41:56;;;;;;;;;;;21.90;48.60;;;;;;4993095;28;965;-40
2022/03/07 11:44:23;;;;;;;;;;;21.90;48.70;;;;;;4991949;28;987;-40
2022/03/07 11:46:51;;;;;;;;;;;21.90;48.50;;;;;;4992164;28;963;-40
2022/03/07 11:49:23;;;;;;;;;;;22.00;48.50;;;;;;4993158;28;1833;-41
2022/03/07 11:51:58;;;;;;;;;;;22.00;48.40;;;;;;4991808;28;1902;-40
2022/03/07 11:54:25;;;;;;;;;;;21.90;48.50;;;;;;4992686;28;1020;-40
2022/03/07 11:56:51;;;;;;;;;;;21.90;48.50;;;;;;4992572;28;976;-41
2022/03/07 11:59:28;;;;;;;;;;;21.80;48.60;;;;;;4994228;28;997;-40
2022/03/07 12:01:55;;;;;;;;;;;21.80;48.60;;;;;;4993897;28;1004;-40
2022/03/07 12:04:22;;;;;;;;;;;21.80;48.60;;;;;;4994863;28;1012;-40
2022/03/07 12:06:49;;;;;;;;;;;21.90;48.50;;;;;;4995800;28;922;-40
2022/03/07 12:09:28;;;;;;;;;;;21.80;48.50;;;;;;4994064;28;1501;-41
2022/03/07 12:11:58;;;;;;;;;;;21.90;48.40;;;;;;4994622;28;1894;-39
2022/03/07 12:14:27;;;;;;;;;;;21.90;48.50;;;;;;4993032;28;1354;-40
2022/03/07 12:16:54;;;;;;;;;;;21.90;48.30;;;;;;4992371;28;964;-40
2022/03/07 12:19:22;;;;;;;;;;;21.90;48.40;;;;;;4991978;28;1009;-40
2022/03/07 12:21:49;;;;;;;;;;;21.80;48.40;;;;;;4991420;28;968;-40
2022/03/07 12:24:17;;;;;;;;;;;21.90;48.20;;;;;;4990362;28;949;-41
2022/03/07 12:26:48;;;;;;;;;;;21.90;48.50;;;;;;4992268;28;965;-41
2022/03/07 12:29:15;;;;;;;;;;;21.80;48.60;;;;;;4993267;28;866;-40
2022/03/07 12:31:52;;;;;;;;;;;21.80;48.50;;;;;;4993307;28;1981;-41
2022/03/07 12:34:20;;;;;;;;;;;21.80;48.60;;;;;;4992544;28;967;-41
2022/03/07 12:36:55;;;;;;;;;;;21.80;48.30;;;;;;4992639;28;1033;-40
2022/03/07 12:39:22;;;;;;;;;;;21.80;48.50;;;;;;4992407;28;967;-40
2022/03/07 12:41:50;;;;;;;;;;;21.80;48.50;;;;;;4992379;28;984;-40
2022/03/07 12:44:17;;;;;;;;;;;21.80;48.30;;;;;;4991601;28;1014;-40
2022/03/07 12:46:44;;;;;;;;;;;21.80;48.50;;;;;;4991370;28;1016;-40
2022/03/07 12:49:17;;;;;;;;;;;21.90;48.50;;;;;;4991097;28;999;-40
2022/03/07 12:51:43;;;;;;;;;;;21.90;48.40;;;;;;4992342;28;1981;-40
2022/03/07 12:54:10;;;;;;;;;;;21.90;48.40;;;;;;4992099;28;1042;-38
2022/03/07 12:56:38;;;;;;;;;;;21.80;48.40;;;;;;4991882;28;945;-39
2022/03/07 12:59:06;;;;;;;;;;;21.80;48.50;;;;;;4992505;28;1014;-39
2022/03/07 13:01:33;;;;;;;;;;;21.80;48.20;;;;;;4992591;28;992;-38
2022/03/07 13:04:00;;;;;;;;;;;21.80;48.30;;;;;;4993107;28;1009;-38
2022/03/07 13:06:28;;;;;;;;;;;21.80;48.30;;;;;;4992718;28;1013;-39
2022/03/07 13:08:56;;;;;;;;;;;21.80;48.40;;;;;;4993735;28;1099;-39
2022/03/07 13:11:32;;;;;;;;;;;21.80;48.40;;;;;;4992121;28;1902;-39
2022/03/07 13:13:59;;;;;;;;;;;21.80;48.30;;;;;;4991141;28;1020;-39
2022/03/07 13:16:28;;;;;;;;;;;21.90;48.00;;;;;;4991796;28;989;-38
2022/03/07 13:19:04;;;;;;;;;;;21.80;48.20;;;;;;4993653;28;1015;-39
2022/03/07 13:21:33;;;;;;;;;;;21.80;48.30;;;;;;4993925;28;953;-39
2022/03/07 13:24:00;;;;;;;;;;;21.80;48.30;;;;;;4992002;28;1012;-38
2022/03/07 13:26:27;;;;;;;;;;;21.80;48.30;;;;;;4992518;28;968;-38
2022/03/07 13:29:07;;;;;;;;;;;21.80;48.30;;;;;;4992655;28;995;-38
2022/03/07 13:31:46;;;;;;;;;;;21.80;48.20;;;;;;4991726;28;1910;-38
2022/03/07 13:34:13;;;;;;;;;;;21.80;48.20;;;;;;4991702;28;995;-38
2022/03/07 13:36:40;;;;;;;;;;;21.70;48.30;;;;;;4992571;28;750;-38
2022/03/07 13:39:16;;;;;;;;;;;21.80;48.50;;;;;;4991705;28;980;-38
2022/03/07 13:41:47;;;;;;;;;;;21.70;48.10;;;;;;5013034;28;1266;-38
2022/03/07 13:44:14;;;;;;;;;;;21.70;48.40;;;;;;5010295;28;990;-39
2022/03/07 13:46:51;;;;;;;;;;;21.60;48.40;;;;;;5011193;28;944;-38
2022/03/07 13:49:19;;;;;;;;;;;21.70;48.30;;;;;;5010904;28;983;-39
2022/03/07 13:51:46;;;;;;;;;;;21.70;48.10;;;;;;5010537;28;1906;-39
2022/03/07 13:54:12;;;;;;;;;;;21.60;48.10;;;;;;5011088;28;1023;-39
2022/03/07 13:56:39;;;;;;;;;;;21.60;48.10;;;;;;5010996;28;841;-38
2022/03/07 13:59:15;;;;;;;;;;;21.60;48.20;;;;;;5011156;28;933;-39
2022/03/07 14:01:42;;;;;;;;;;;21.60;48.20;;;;;;5010011;28;993;-39
2022/03/07 14:04:13;;;;;;;;;;;21.50;48.30;;;;;;5010275;28;976;-39
2022/03/07 14:06:42;;;;;;;;;;;21.50;48.30;;;;;;5010601;28;968;-39
2022/03/07 14:09:10;;;;;;;;;;;21.50;49.50;;;;;;5064449;28;1230;-38
2022/03/07 14:11:37;;;;;;;;;;;21.50;48.40;;;;;;5073663;28;1902;-39
2022/03/07 14:14:04;;;;;;;;;;;21.40;48.30;;;;;;5074136;28;1047;-39
2022/03/07 14:16:37;;;;;;;;;;;21.40;48.40;;;;;;5073964;28;901;-39
2022/03/07 14:19:04;;;;;;;;;;;21.40;48.50;;;;;;5073250;28;945;-38
2022/03/07 14:21:32;;;;;;;;;;;21.40;48.40;;;;;;5073988;28;980;-39
2022/03/07 14:24:00;;;;;;;;;;;21.40;48.40;;;;;;5073425;28;1025;-38
2022/03/07 14:26:27;;;;;;;;;;;21.40;48.40;;;;;;5073582;28;958;-38
2022/03/07 14:28:56;;;;;;;;;;;21.50;48.50;;;;;;5073069;28;865;-39
2022/03/07 14:31:23;;;;;;;;;;;21.50;48.50;;;;;;5073944;28;1040;-39
2022/03/07 14:33:49;;;;;;;;;;;21.50;48.40;;;;;;5073722;28;1990;-39
2022/03/07 14:36:16;;;;;;;;;;;21.50;48.50;;;;;;5074207;28;942;-38
2022/03/07 14:38:43;;;;;;;;;;;21.60;48.40;;;;;;5072901;28;838;-39